메인 페이지
METAR-TAF:

METAR-TAF

공항 :

Jimmy Lake, 서스캐처원, 캐나다

위도: 54-55N, 경도: 109-57W, 고도: 658m

현재 날씨관측

예보는 46분 전, 10:00시(UTC)에 발표되었습니다.
북서9kt서북서풍과 풍을 오가는
온도 -26°C
습도 62%
기압 1027 hPa
시정: 2.0km
고도 100ft 미만 상공 구름 많음
고도 1400ft 상공 흐림
고도 2100ft 상공 흐림
고도 3800ft 상공 흐림
약한눈

METAR: CWHN 181000Z AUTO 32009KT 290V350 1 1/4SM -SN BKN000 OVC014 OVC021 OVC038 M26/M31 A3032 RMK SLP343

시각: 04:46 (10:46 UTC)


TAF: 누락

4,000개 이상의 공항 관측 자료 및 예보 (METAR 및 TAF 보고).

지도상에서 검색 가능한 기상관측소가 노란 점과 빨간 점으로 표시되어 있습니다.

기상관측소 명을 보려면 표시 위로 마우스를 이동하세요.

날씨 관측과 예보를 보려면 클릭하세요.

지도 변경 : 확대하려면 엑스 표시가 있는 녹색 버튼, 축소하려면 빼기 표시가 있는 녹색 버튼, 다음 페이지의 지도를 보려면 녹색 화살표를 클릭하세요.


METAR-TAF: